Terminal Aerodrome Forecast
Issued by NWS Mt. Holly, NJ

Home | Current Version | Previous Version | Text Only | Print | Product List | Glossary On
Versions: 1 2 3 4 5 6 7 8 9 10 11 12 13 14 15 16 17 18 19 20 21
000
FTUS41 KPHI 201700
TAFILG
TAF
KILG 201740Z 2018/2118 18010KT P6SM SCT150 BKN250
     FM210000 19005KT P6SM BKN150
     FM210400 VRB03KT P6SM SCT040 OVC080
     FM211500 20006KT P6SM BKN040=

USA.gov is the U.S. government's official web portal to all federal, state and local government web resources and services.